sensor_id;sensor_type;location;lat;lon;timestamp;noise_LAeq;noise_LA_min;noise_LA_max;noise_LA01;noise_LA95
63692;Laerm;49838;51.798;10.954;2022-12-07T00:01:51;29.96;27.44;44.78;;
63692;Laerm;49838;51.798;10.954;2022-12-07T00:04:20;33.81;28.31;54.61;;
63692;Laerm;49838;51.798;10.954;2022-12-07T00:06:51;31.91;28.74;45.64;;
63692;Laerm;49838;51.798;10.954;2022-12-07T00:09:19;33.73;28.27;44.01;;
63692;Laerm;49838;51.798;10.954;2022-12-07T00:11:49;30.53;28.12;44.60;;
63692;Laerm;49838;51.798;10.954;2022-12-07T00:14:17;35.14;27.86;48.05;;
63692;Laerm;49838;51.798;10.954;2022-12-07T00:16:44;30.22;27.70;45.41;;
63692;Laerm;49838;51.798;10.954;2022-12-07T00:19:13;30.21;27.77;46.58;;
63692;Laerm;49838;51.798;10.954;2022-12-07T00:21:42;29.93;27.35;45.18;;
63692;Laerm;49838;51.798;10.954;2022-12-07T00:24:09;51.86;27.94;70.20;;
63692;Laerm;49838;51.798;10.954;2022-12-07T00:26:38;30.88;27.49;46.07;;
63692;Laerm;49838;51.798;10.954;2022-12-07T00:29:08;29.55;27.34;45.16;;
63692;Laerm;49838;51.798;10.954;2022-12-07T00:31:37;30.04;27.59;44.32;;
63692;Laerm;49838;51.798;10.954;2022-12-07T00:34:06;29.83;27.70;38.48;;
63692;Laerm;49838;51.798;10.954;2022-12-07T00:36:33;35.98;28.35;47.40;;
63692;Laerm;49838;51.798;10.954;2022-12-07T00:39:03;30.58;27.74;46.72;;
63692;Laerm;49838;51.798;10.954;2022-12-07T00:41:30;30.09;27.46;45.94;;
63692;Laerm;49838;51.798;10.954;2022-12-07T00:43:57;29.94;27.52;46.05;;
63692;Laerm;49838;51.798;10.954;2022-12-07T00:46:25;31.08;28.01;44.02;;
63692;Laerm;49838;51.798;10.954;2022-12-07T00:48:53;32.23;27.87;45.70;;
63692;Laerm;49838;51.798;10.954;2022-12-07T00:51:22;29.89;27.59;45.00;;
63692;Laerm;49838;51.798;10.954;2022-12-07T00:53:49;30.78;27.67;45.05;;
63692;Laerm;49838;51.798;10.954;2022-12-07T00:56:20;30.46;27.69;47.46;;
63692;Laerm;49838;51.798;10.954;2022-12-07T00:58:52;29.96;27.69;44.09;;
63692;Laerm;49838;51.798;10.954;2022-12-07T01:01:19;54.33;28.46;73.58;;
63692;Laerm;49838;51.798;10.954;2022-12-07T01:03:47;33.47;28.91;42.91;;
63692;Laerm;49838;51.798;10.954;2022-12-07T01:06:15;31.20;28.50;43.64;;
63692;Laerm;49838;51.798;10.954;2022-12-07T01:08:43;32.88;28.27;50.23;;
63692;Laerm;49838;51.798;10.954;2022-12-07T01:11:13;33.80;28.65;54.85;;
63692;Laerm;49838;51.798;10.954;2022-12-07T01:13:42;37.12;29.40;61.41;;
63692;Laerm;49838;51.798;10.954;2022-12-07T01:16:11;35.71;30.07;51.41;;
63692;Laerm;49838;51.798;10.954;2022-12-07T01:18:39;34.75;29.71;52.32;;
63692;Laerm;49838;51.798;10.954;2022-12-07T01:21:09;35.61;29.77;52.85;;
63692;Laerm;49838;51.798;10.954;2022-12-07T01:23:38;37.12;29.73;53.01;;
63692;Laerm;49838;51.798;10.954;2022-12-07T01:26:09;38.01;30.28;56.52;;
63692;Laerm;49838;51.798;10.954;2022-12-07T01:28:38;39.59;30.92;60.72;;
63692;Laerm;49838;51.798;10.954;2022-12-07T01:31:08;35.74;30.15;53.90;;
63692;Laerm;49838;51.798;10.954;2022-12-07T01:33:38;37.21;30.74;53.02;;
63692;Laerm;49838;51.798;10.954;2022-12-07T01:36:08;38.91;30.56;58.03;;
63692;Laerm;49838;51.798;10.954;2022-12-07T01:38:39;39.65;30.09;62.77;;
63692;Laerm;49838;51.798;10.954;2022-12-07T01:41:07;33.91;29.05;54.61;;
63692;Laerm;49838;51.798;10.954;2022-12-07T01:43:35;37.83;29.89;58.67;;
63692;Laerm;49838;51.798;10.954;2022-12-07T01:46:03;35.02;29.93;53.09;;
63692;Laerm;49838;51.798;10.954;2022-12-07T01:48:34;36.19;30.70;54.90;;
63692;Laerm;49838;51.798;10.954;2022-12-07T01:51:06;33.51;29.40;46.18;;
63692;Laerm;49838;51.798;10.954;2022-12-07T01:53:38;36.94;29.77;53.74;;
63692;Laerm;49838;51.798;10.954;2022-12-07T01:56:08;34.76;30.82;43.46;;
63692;Laerm;49838;51.798;10.954;2022-12-07T01:58:37;34.99;30.35;49.12;;
63692;Laerm;49838;51.798;10.954;2022-12-07T02:01:04;32.21;28.46;45.99;;
63692;Laerm;49838;51.798;10.954;2022-12-07T02:03:36;31.44;28.31;44.89;;
63692;Laerm;49838;51.798;10.954;2022-12-07T02:06:05;33.10;29.15;51.20;;
63692;Laerm;49838;51.798;10.954;2022-12-07T02:08:34;33.07;28.74;54.22;;
63692;Laerm;49838;51.798;10.954;2022-12-07T02:11:02;32.24;28.05;50.03;;
63692;Laerm;49838;51.798;10.954;2022-12-07T02:13:32;33.63;28.27;49.37;;
63692;Laerm;49838;51.798;10.954;2022-12-07T02:16:09;31.65;28.37;46.27;;
63692;Laerm;49838;51.798;10.954;2022-12-07T02:18:59;33.08;28.82;49.72;;
63692;Laerm;49838;51.798;10.954;2022-12-07T02:21:37;35.27;28.86;52.25;;
63692;Laerm;49838;51.798;10.954;2022-12-07T02:24:35;34.90;29.17;54.88;;
63692;Laerm;49838;51.798;10.954;2022-12-07T02:27:28;33.14;28.68;51.31;;
63692;Laerm;49838;51.798;10.954;2022-12-07T02:30:04;31.97;29.13;44.49;;
63692;Laerm;49838;51.798;10.954;2022-12-07T02:32:40;35.28;28.40;51.65;;
63692;Laerm;49838;51.798;10.954;2022-12-07T02:35:11;40.48;29.07;58.15;;
63692;Laerm;49838;51.798;10.954;2022-12-07T02:37:48;33.01;29.93;45.19;;
63692;Laerm;49838;51.798;10.954;2022-12-07T02:40:24;33.52;29.99;44.98;;
63692;Laerm;49838;51.798;10.954;2022-12-07T02:42:59;35.01;29.18;61.98;;
63692;Laerm;49838;51.798;10.954;2022-12-07T02:45:31;32.51;29.19;45.10;;
63692;Laerm;49838;51.798;10.954;2022-12-07T02:48:00;32.89;28.90;46.10;;
63692;Laerm;49838;51.798;10.954;2022-12-07T02:50:27;35.76;30.21;46.39;;
63692;Laerm;49838;51.798;10.954;2022-12-07T02:52:55;31.49;28.63;46.49;;
63692;Laerm;49838;51.798;10.954;2022-12-07T02:55:28;33.15;29.09;46.60;;
63692;Laerm;49838;51.798;10.954;2022-12-07T02:58:26;36.35;29.40;63.14;;
63692;Laerm;49838;51.798;10.954;2022-12-07T03:01:05;33.85;30.08;47.21;;
63692;Laerm;49838;51.798;10.954;2022-12-07T03:03:35;43.20;30.43;75.71;;
63692;Laerm;49838;51.798;10.954;2022-12-07T03:06:10;35.96;31.15;61.66;;
63692;Laerm;49838;51.798;10.954;2022-12-07T03:08:48;33.51;30.13;46.02;;
63692;Laerm;49838;51.798;10.954;2022-12-07T03:11:24;35.97;29.84;60.76;;
63692;Laerm;49838;51.798;10.954;2022-12-07T03:13:57;33.58;29.49;48.42;;
63692;Laerm;49838;51.798;10.954;2022-12-07T03:16:31;35.32;29.95;58.54;;
63692;Laerm;49838;51.798;10.954;2022-12-07T03:19:03;36.79;31.31;61.67;;
63692;Laerm;49838;51.798;10.954;2022-12-07T03:21:37;34.86;31.08;57.78;;
63692;Laerm;49838;51.798;10.954;2022-12-07T03:24:09;34.42;30.13;50.30;;
63692;Laerm;49838;51.798;10.954;2022-12-07T03:26:41;35.40;31.51;46.66;;
63692;Laerm;49838;51.798;10.954;2022-12-07T03:29:15;37.04;31.99;62.81;;
63692;Laerm;49838;51.798;10.954;2022-12-07T03:31:47;39.02;32.57;61.19;;
63692;Laerm;49838;51.798;10.954;2022-12-07T03:34:22;37.26;32.26;65.43;;
63692;Laerm;49838;51.798;10.954;2022-12-07T03:36:55;53.00;31.62;70.66;;
63692;Laerm;49838;51.798;10.954;2022-12-07T03:39:30;36.77;32.42;55.36;;
63692;Laerm;49838;51.798;10.954;2022-12-07T03:42:03;42.04;33.51;66.79;;
63692;Laerm;49838;51.798;10.954;2022-12-07T03:44:32;42.47;33.60;65.17;;
63692;Laerm;49838;51.798;10.954;2022-12-07T03:47:05;38.92;33.08;60.13;;
63692;Laerm;49838;51.798;10.954;2022-12-07T03:49:39;38.09;33.94;57.66;;
63692;Laerm;49838;51.798;10.954;2022-12-07T03:52:12;36.15;31.69;50.01;;
63692;Laerm;49838;51.798;10.954;2022-12-07T03:54:48;40.90;31.86;70.13;;
63692;Laerm;49838;51.798;10.954;2022-12-07T03:57:18;37.85;31.74;66.58;;
63692;Laerm;49838;51.798;10.954;2022-12-07T03:59:48;53.26;32.54;73.42;;
63692;Laerm;49838;51.798;10.954;2022-12-07T04:02:18;46.10;34.48;67.71;;
63692;Laerm;49838;51.798;10.954;2022-12-07T04:04:45;37.26;33.60;46.97;;
63692;Laerm;49838;51.798;10.954;2022-12-07T04:07:13;46.47;34.16;63.08;;
63692;Laerm;49838;51.798;10.954;2022-12-07T04:09:40;54.63;34.11;70.88;;
63692;Laerm;49838;51.798;10.954;2022-12-07T04:12:07;39.78;33.77;49.02;;
63692;Laerm;49838;51.798;10.954;2022-12-07T04:14:35;41.14;33.92;62.02;;
63692;Laerm;49838;51.798;10.954;2022-12-07T04:17:02;39.28;33.29;53.89;;
63692;Laerm;49838;51.798;10.954;2022-12-07T04:19:33;40.01;34.70;66.54;;
63692;Laerm;49838;51.798;10.954;2022-12-07T04:22:03;51.37;34.27;66.56;;
63692;Laerm;49838;51.798;10.954;2022-12-07T04:24:30;55.96;35.73;75.55;;
63692;Laerm;49838;51.798;10.954;2022-12-07T04:26:58;50.38;36.20;67.40;;
63692;Laerm;49838;51.798;10.954;2022-12-07T04:29:25;40.83;35.71;52.08;;
63692;Laerm;49838;51.798;10.954;2022-12-07T04:31:53;43.20;35.82;69.02;;
63692;Laerm;49838;51.798;10.954;2022-12-07T04:34:20;48.99;36.47;65.81;;
63692;Laerm;49838;51.798;10.954;2022-12-07T04:36:49;40.22;34.95;59.74;;
63692;Laerm;49838;51.798;10.954;2022-12-07T04:39:19;40.33;36.19;47.49;;
63692;Laerm;49838;51.798;10.954;2022-12-07T04:41:47;39.95;35.73;55.34;;
63692;Laerm;49838;51.798;10.954;2022-12-07T04:44:15;50.41;36.61;73.04;;
63692;Laerm;49838;51.798;10.954;2022-12-07T04:46:43;39.80;35.56;55.60;;
63692;Laerm;49838;51.798;10.954;2022-12-07T04:49:11;50.69;36.13;67.15;;
63692;Laerm;49838;51.798;10.954;2022-12-07T04:51:39;55.81;35.38;73.50;;
63692;Laerm;49838;51.798;10.954;2022-12-07T04:54:08;58.70;37.48;74.77;;
63692;Laerm;49838;51.798;10.954;2022-12-07T04:56:35;52.96;36.06;68.08;;
63692;Laerm;49838;51.798;10.954;2022-12-07T04:59:03;51.37;33.82;69.90;;
63692;Laerm;49838;51.798;10.954;2022-12-07T05:01:31;52.00;35.25;69.46;;
63692;Laerm;49838;51.798;10.954;2022-12-07T05:03:59;53.62;36.32;73.83;;
63692;Laerm;49838;51.798;10.954;2022-12-07T05:06:26;54.45;35.22;73.54;;
63692;Laerm;49838;51.798;10.954;2022-12-07T05:08:54;55.66;38.09;70.86;;
63692;Laerm;49838;51.798;10.954;2022-12-07T05:11:23;41.36;36.59;55.74;;
63692;Laerm;49838;51.798;10.954;2022-12-07T05:14:09;43.08;36.77;59.64;;
63692;Laerm;49838;51.798;10.954;2022-12-07T05:16:37;52.07;38.34;68.34;;
63692;Laerm;49838;51.798;10.954;2022-12-07T05:19:05;50.99;36.95;67.88;;
63692;Laerm;49838;51.798;10.954;2022-12-07T05:21:32;55.19;37.75;71.00;;
63692;Laerm;49838;51.798;10.954;2022-12-07T05:24:00;57.21;38.71;76.05;;
63692;Laerm;49838;51.798;10.954;2022-12-07T05:26:29;57.12;38.52;74.99;;
63692;Laerm;49838;51.798;10.954;2022-12-07T05:28:57;56.49;37.50;70.98;;
63692;Laerm;49838;51.798;10.954;2022-12-07T05:31:25;59.96;39.63;73.14;;
63692;Laerm;49838;51.798;10.954;2022-12-07T05:33:53;59.11;37.94;75.73;;
63692;Laerm;49838;51.798;10.954;2022-12-07T05:36:21;52.17;37.95;68.39;;
63692;Laerm;49838;51.798;10.954;2022-12-07T05:38:49;57.70;39.46;72.95;;
63692;Laerm;49838;51.798;10.954;2022-12-07T05:41:18;43.15;38.29;55.71;;
63692;Laerm;49838;51.798;10.954;2022-12-07T05:44:05;61.65;40.42;76.89;;
63692;Laerm;49838;51.798;10.954;2022-12-07T05:46:33;61.57;42.74;75.38;;
63692;Laerm;49838;51.798;10.954;2022-12-07T05:49:01;58.07;39.92;74.39;;
63692;Laerm;49838;51.798;10.954;2022-12-07T05:51:28;64.30;47.43;72.26;;
63692;Laerm;49838;51.798;10.954;2022-12-07T05:53:56;51.87;40.20;65.65;;
63692;Laerm;49838;51.798;10.954;2022-12-07T05:56:23;59.03;39.42;76.20;;
63692;Laerm;49838;51.798;10.954;2022-12-07T05:58:50;60.50;42.56;77.21;;
63692;Laerm;49838;51.798;10.954;2022-12-07T06:01:37;58.81;40.21;75.00;;
63692;Laerm;49838;51.798;10.954;2022-12-07T06:04:04;59.42;43.28;75.65;;
63692;Laerm;49838;51.798;10.954;2022-12-07T06:06:32;60.15;40.41;74.82;;
63692;Laerm;49838;51.798;10.954;2022-12-07T06:08:59;52.39;39.22;71.30;;
63692;Laerm;49838;51.798;10.954;2022-12-07T06:11:26;53.14;37.97;71.86;;
63692;Laerm;49838;51.798;10.954;2022-12-07T06:14:11;59.86;38.48;74.39;;
63692;Laerm;49838;51.798;10.954;2022-12-07T06:16:40;55.78;40.39;68.28;;
63692;Laerm;49838;51.798;10.954;2022-12-07T06:19:08;55.34;38.78;70.88;;
63692;Laerm;49838;51.798;10.954;2022-12-07T06:21:35;56.21;41.14;86.27;;
63692;Laerm;49838;51.798;10.954;2022-12-07T06:24:03;65.03;38.62;84.32;;
63692;Laerm;49838;51.798;10.954;2022-12-07T06:26:30;57.74;38.81;71.26;;
63692;Laerm;49838;51.798;10.954;2022-12-07T06:28:58;60.35;41.45;75.27;;
63692;Laerm;49838;51.798;10.954;2022-12-07T06:31:25;60.59;41.58;73.19;;
63692;Laerm;49838;51.798;10.954;2022-12-07T06:33:58;61.67;38.72;74.17;;
63692;Laerm;49838;51.798;10.954;2022-12-07T06:36:26;61.42;39.20;76.57;;
63692;Laerm;49838;51.798;10.954;2022-12-07T06:38:53;63.48;39.07;79.96;;
63692;Laerm;49838;51.798;10.954;2022-12-07T06:41:20;58.47;39.67;71.93;;
63692;Laerm;49838;51.798;10.954;2022-12-07T06:43:48;47.64;39.41;73.62;;
63692;Laerm;49838;51.798;10.954;2022-12-07T06:46:16;66.28;38.64;83.49;;
63692;Laerm;49838;51.798;10.954;2022-12-07T06:48:43;55.47;40.55;72.56;;
63692;Laerm;49838;51.798;10.954;2022-12-07T06:51:12;57.99;38.14;74.45;;
63692;Laerm;49838;51.798;10.954;2022-12-07T06:53:40;56.82;39.51;74.39;;
63692;Laerm;49838;51.798;10.954;2022-12-07T06:56:07;59.30;39.14;78.04;;
63692;Laerm;49838;51.798;10.954;2022-12-07T06:58:35;62.53;38.46;79.00;;
63692;Laerm;49838;51.798;10.954;2022-12-07T07:01:02;57.55;37.16;74.00;;
63692;Laerm;49838;51.798;10.954;2022-12-07T07:03:30;59.81;38.73;75.13;;
63692;Laerm;49838;51.798;10.954;2022-12-07T07:05:57;57.96;36.50;73.22;;
63692;Laerm;49838;51.798;10.954;2022-12-07T07:08:26;57.41;38.16;72.64;;
63692;Laerm;49838;51.798;10.954;2022-12-07T07:10:53;54.14;37.89;70.52;;
63692;Laerm;49838;51.798;10.954;2022-12-07T07:13:20;59.41;37.49;74.63;;
63692;Laerm;49838;51.798;10.954;2022-12-07T07:15:47;55.73;38.86;70.50;;
63692;Laerm;49838;51.798;10.954;2022-12-07T07:18:15;61.51;39.57;79.04;;
63692;Laerm;49838;51.798;10.954;2022-12-07T07:20:42;42.69;37.05;57.46;;
63692;Laerm;49838;51.798;10.954;2022-12-07T07:23:10;43.52;37.63;59.91;;
63692;Laerm;49838;51.798;10.954;2022-12-07T07:25:38;58.43;37.90;74.96;;
63692;Laerm;49838;51.798;10.954;2022-12-07T07:28:06;61.61;40.81;75.67;;
63692;Laerm;49838;51.798;10.954;2022-12-07T07:30:33;61.51;40.34;75.67;;
63692;Laerm;49838;51.798;10.954;2022-12-07T07:33:01;59.67;39.00;78.70;;
63692;Laerm;49838;51.798;10.954;2022-12-07T07:35:30;58.25;38.94;74.04;;
63692;Laerm;49838;51.798;10.954;2022-12-07T07:37:58;58.00;38.83;76.45;;
63692;Laerm;49838;51.798;10.954;2022-12-07T07:40:26;61.40;39.88;78.44;;
63692;Laerm;49838;51.798;10.954;2022-12-07T07:42:56;41.56;37.20;51.85;;
63692;Laerm;49838;51.798;10.954;2022-12-07T07:45:24;62.30;37.57;76.59;;
63692;Laerm;49838;51.798;10.954;2022-12-07T07:47:52;62.78;37.77;78.11;;
63692;Laerm;49838;51.798;10.954;2022-12-07T07:50:20;63.87;44.02;80.37;;
63692;Laerm;49838;51.798;10.954;2022-12-07T07:52:47;60.82;37.83;75.70;;
63692;Laerm;49838;51.798;10.954;2022-12-07T07:55:15;62.97;41.21;77.79;;
63692;Laerm;49838;51.798;10.954;2022-12-07T07:57:43;63.42;40.40;79.80;;
63692;Laerm;49838;51.798;10.954;2022-12-07T08:00:13;62.94;37.85;80.40;;
63692;Laerm;49838;51.798;10.954;2022-12-07T08:02:41;59.82;38.65;74.06;;
63692;Laerm;49838;51.798;10.954;2022-12-07T08:05:10;57.84;38.19;76.01;;
63692;Laerm;49838;51.798;10.954;2022-12-07T08:07:38;57.32;38.53;72.48;;
63692;Laerm;49838;51.798;10.954;2022-12-07T08:10:06;58.88;38.47;75.73;;
63692;Laerm;49838;51.798;10.954;2022-12-07T08:12:36;59.21;38.71;74.06;;
63692;Laerm;49838;51.798;10.954;2022-12-07T08:15:04;58.29;40.79;74.48;;
63692;Laerm;49838;51.798;10.954;2022-12-07T08:17:33;44.53;39.33;54.55;;
63692;Laerm;49838;51.798;10.954;2022-12-07T08:20:00;61.31;38.93;77.71;;
63692;Laerm;49838;51.798;10.954;2022-12-07T08:22:28;56.27;39.41;73.26;;
63692;Laerm;49838;51.798;10.954;2022-12-07T08:24:55;59.35;40.20;73.18;;
63692;Laerm;49838;51.798;10.954;2022-12-07T08:27:22;60.14;40.65;76.18;;
63692;Laerm;49838;51.798;10.954;2022-12-07T08:29:52;62.90;42.73;79.55;;
63692;Laerm;49838;51.798;10.954;2022-12-07T08:32:20;56.98;39.54;79.15;;
63692;Laerm;49838;51.798;10.954;2022-12-07T08:34:48;63.24;41.66;77.73;;
63692;Laerm;49838;51.798;10.954;2022-12-07T08:37:16;59.21;39.95;75.44;;
63692;Laerm;49838;51.798;10.954;2022-12-07T08:39:43;55.23;41.22;72.34;;
63692;Laerm;49838;51.798;10.954;2022-12-07T08:42:10;52.86;40.05;70.19;;
63692;Laerm;49838;51.798;10.954;2022-12-07T08:44:38;57.63;41.59;72.30;;
63692;Laerm;49838;51.798;10.954;2022-12-07T08:47:07;60.40;41.53;75.49;;
63692;Laerm;49838;51.798;10.954;2022-12-07T08:49:39;64.01;41.61;79.80;;
63692;Laerm;49838;51.798;10.954;2022-12-07T08:52:10;60.47;42.63;74.48;;
63692;Laerm;49838;51.798;10.954;2022-12-07T08:54:38;59.41;44.25;74.86;;
63692;Laerm;49838;51.798;10.954;2022-12-07T08:57:07;59.99;41.83;79.68;;
63692;Laerm;49838;51.798;10.954;2022-12-07T08:59:36;62.40;43.87;77.01;;
63692;Laerm;49838;51.798;10.954;2022-12-07T09:02:05;58.30;41.48;72.06;;
63692;Laerm;49838;51.798;10.954;2022-12-07T09:04:33;61.12;43.48;76.16;;
63692;Laerm;49838;51.798;10.954;2022-12-07T09:07:01;63.13;40.26;84.90;;
63692;Laerm;49838;51.798;10.954;2022-12-07T09:09:31;56.89;40.14;75.15;;
63692;Laerm;49838;51.798;10.954;2022-12-07T09:11:58;56.39;39.96;71.53;;
63692;Laerm;49838;51.798;10.954;2022-12-07T09:14:26;65.73;41.01;85.02;;
63692;Laerm;49838;51.798;10.954;2022-12-07T09:16:53;59.06;39.84;71.90;;
63692;Laerm;49838;51.798;10.954;2022-12-07T09:19:20;59.05;42.09;72.33;;
63692;Laerm;49838;51.798;10.954;2022-12-07T09:21:48;60.51;41.30;75.35;;
63692;Laerm;49838;51.798;10.954;2022-12-07T09:24:15;59.41;43.03;71.13;;
63692;Laerm;49838;51.798;10.954;2022-12-07T09:26:44;56.92;39.89;72.30;;
63692;Laerm;49838;51.798;10.954;2022-12-07T09:29:11;58.43;38.61;72.20;;
63692;Laerm;49838;51.798;10.954;2022-12-07T09:31:39;55.98;41.43;68.20;;
63692;Laerm;49838;51.798;10.954;2022-12-07T09:34:06;54.04;40.72;72.82;;
63692;Laerm;49838;51.798;10.954;2022-12-07T09:36:33;64.23;41.48;81.64;;
63692;Laerm;49838;51.798;10.954;2022-12-07T09:39:01;61.92;41.69;76.19;;
63692;Laerm;49838;51.798;10.954;2022-12-07T09:41:31;60.58;38.56;79.05;;
63692;Laerm;49838;51.798;10.954;2022-12-07T09:44:04;61.42;39.83;79.86;;
63692;Laerm;49838;51.798;10.954;2022-12-07T09:46:34;56.61;38.27;73.88;;
63692;Laerm;49838;51.798;10.954;2022-12-07T09:49:03;51.30;40.11;67.97;;
63692;Laerm;49838;51.798;10.954;2022-12-07T09:51:31;57.45;39.76;73.03;;
63692;Laerm;49838;51.798;10.954;2022-12-07T09:53:59;59.74;39.85;72.52;;
63692;Laerm;49838;51.798;10.954;2022-12-07T09:56:29;58.29;39.08;73.13;;
63692;Laerm;49838;51.798;10.954;2022-12-07T09:58:59;56.54;37.83;72.84;;
63692;Laerm;49838;51.798;10.954;2022-12-07T10:01:30;57.92;39.98;72.43;;
63692;Laerm;49838;51.798;10.954;2022-12-07T10:04:02;59.54;41.49;73.63;;
63692;Laerm;49838;51.798;10.954;2022-12-07T10:06:33;57.28;39.26;71.03;;
63692;Laerm;49838;51.798;10.954;2022-12-07T10:09:01;58.20;40.50;73.03;;
63692;Laerm;49838;51.798;10.954;2022-12-07T10:11:29;59.83;40.02;75.13;;
63692;Laerm;49838;51.798;10.954;2022-12-07T10:14:10;57.21;38.74;71.51;;
63692;Laerm;49838;51.798;10.954;2022-12-07T10:16:41;59.50;40.25;72.57;;
63692;Laerm;49838;51.798;10.954;2022-12-07T10:19:22;65.20;41.27;81.83;;
63692;Laerm;49838;51.798;10.954;2022-12-07T10:22:01;60.73;42.82;73.55;;
63692;Laerm;49838;51.798;10.954;2022-12-07T10:24:29;61.39;40.38;74.04;;
63692;Laerm;49838;51.798;10.954;2022-12-07T10:26:58;66.03;40.74;85.29;;
63692;Laerm;49838;51.798;10.954;2022-12-07T10:29:29;59.59;39.77;75.50;;
63692;Laerm;49838;51.798;10.954;2022-12-07T10:32:00;67.70;47.30;83.65;;
63692;Laerm;49838;51.798;10.954;2022-12-07T10:34:29;65.70;45.63;80.55;;
63692;Laerm;49838;51.798;10.954;2022-12-07T10:37:16;61.41;41.97;78.39;;
63692;Laerm;49838;51.798;10.954;2022-12-07T10:39:45;62.42;41.19;74.78;;
63692;Laerm;49838;51.798;10.954;2022-12-07T10:42:17;59.68;40.44;74.35;;
63692;Laerm;49838;51.798;10.954;2022-12-07T10:44:45;65.69;43.41;77.20;;
63692;Laerm;49838;51.798;10.954;2022-12-07T10:47:31;67.41;52.86;75.02;;
63692;Laerm;49838;51.798;10.954;2022-12-07T10:50:19;69.12;42.35;84.56;;
63692;Laerm;49838;51.798;10.954;2022-12-07T10:53:01;60.14;41.81;76.19;;
63692;Laerm;49838;51.798;10.954;2022-12-07T10:55:45;60.25;40.48;73.81;;
63692;Laerm;49838;51.798;10.954;2022-12-07T10:58:26;59.47;40.24;77.21;;
63692;Laerm;49838;51.798;10.954;2022-12-07T11:01:00;56.92;39.33;72.97;;
63692;Laerm;49838;51.798;10.954;2022-12-07T11:03:44;54.68;40.15;70.68;;
63692;Laerm;49838;51.798;10.954;2022-12-07T11:06:20;59.47;39.31;77.59;;
63692;Laerm;49838;51.798;10.954;2022-12-07T11:08:59;60.98;39.56;80.55;;
63692;Laerm;49838;51.798;10.954;2022-12-07T11:11:33;60.43;37.59;73.67;;
63692;Laerm;49838;51.798;10.954;2022-12-07T11:14:08;61.05;38.01;76.64;;
63692;Laerm;49838;51.798;10.954;2022-12-07T11:16:51;59.25;37.15;73.77;;
63692;Laerm;49838;51.798;10.954;2022-12-07T11:19:31;56.08;39.70;73.06;;
63692;Laerm;49838;51.798;10.954;2022-12-07T11:22:06;61.20;39.39;74.95;;
63692;Laerm;49838;51.798;10.954;2022-12-07T11:24:44;62.02;38.09;74.31;;
63692;Laerm;49838;51.798;10.954;2022-12-07T11:27:23;55.05;38.31;72.91;;
63692;Laerm;49838;51.798;10.954;2022-12-07T11:30:09;55.99;37.75;70.64;;
63692;Laerm;49838;51.798;10.954;2022-12-07T11:33:08;58.23;39.37;74.79;;
63692;Laerm;49838;51.798;10.954;2022-12-07T11:35:47;61.21;39.71;79.04;;
63692;Laerm;49838;51.798;10.954;2022-12-07T11:38:22;60.27;39.06;74.73;;
63692;Laerm;49838;51.798;10.954;2022-12-07T11:40:54;53.77;39.51;72.63;;
63692;Laerm;49838;51.798;10.954;2022-12-07T11:43:50;56.03;41.53;82.25;;
63692;Laerm;49838;51.798;10.954;2022-12-07T11:46:22;64.49;40.45;82.06;;
63692;Laerm;49838;51.798;10.954;2022-12-07T11:48:57;58.82;39.39;74.34;;
63692;Laerm;49838;51.798;10.954;2022-12-07T11:51:28;55.92;38.01;74.74;;
63692;Laerm;49838;51.798;10.954;2022-12-07T11:53:59;55.03;39.26;71.89;;
63692;Laerm;49838;51.798;10.954;2022-12-07T11:56:30;54.45;38.48;70.88;;
63692;Laerm;49838;51.798;10.954;2022-12-07T11:59:09;51.71;39.40;72.53;;
63692;Laerm;49838;51.798;10.954;2022-12-07T12:01:48;60.90;42.15;72.05;;
63692;Laerm;49838;51.798;10.954;2022-12-07T12:04:34;67.45;40.69;96.28;;
63692;Laerm;49838;51.798;10.954;2022-12-07T12:07:07;59.00;38.69;74.96;;
63692;Laerm;49838;51.798;10.954;2022-12-07T12:09:40;57.17;39.09;73.55;;
63692;Laerm;49838;51.798;10.954;2022-12-07T12:15:16;56.33;40.57;72.16;;
63692;Laerm;49838;51.798;10.954;2022-12-07T12:17:56;57.18;39.61;71.93;;
63692;Laerm;49838;51.798;10.954;2022-12-07T12:20:30;54.84;39.01;71.93;;
63692;Laerm;49838;51.798;10.954;2022-12-07T12:23:05;57.20;40.04;69.25;;
63692;Laerm;49838;51.798;10.954;2022-12-07T12:25:39;57.33;40.49;81.74;;
63692;Laerm;49838;51.798;10.954;2022-12-07T12:28:20;56.05;38.96;71.18;;
63692;Laerm;49838;51.798;10.954;2022-12-07T12:31:05;59.44;41.90;73.50;;
63692;Laerm;49838;51.798;10.954;2022-12-07T12:33:37;61.75;39.36;79.57;;
63692;Laerm;49838;51.798;10.954;2022-12-07T12:36:20;61.28;42.51;77.86;;
63692;Laerm;49838;51.798;10.954;2022-12-07T12:38:51;60.23;40.14;80.49;;
63692;Laerm;49838;51.798;10.954;2022-12-07T12:41:54;59.37;39.20;74.72;;
63692;Laerm;49838;51.798;10.954;2022-12-07T12:47:41;58.10;40.39;80.05;;
63692;Laerm;49838;51.798;10.954;2022-12-07T12:50:17;64.70;40.32;84.50;;
63692;Laerm;49838;51.798;10.954;2022-12-07T12:52:51;57.39;39.55;72.79;;
63692;Laerm;49838;51.798;10.954;2022-12-07T12:58:38;51.73;38.17;68.91;;
63692;Laerm;49838;51.798;10.954;2022-12-07T13:01:40;54.48;39.35;73.08;;
63692;Laerm;49838;51.798;10.954;2022-12-07T13:04:24;56.30;40.12;70.80;;
63692;Laerm;49838;51.798;10.954;2022-12-07T13:06:54;59.44;40.54;72.59;;
63692;Laerm;49838;51.798;10.954;2022-12-07T13:09:23;56.33;40.25;72.03;;
63692;Laerm;49838;51.798;10.954;2022-12-07T13:11:59;62.83;39.93;90.03;;
63692;Laerm;49838;51.798;10.954;2022-12-07T13:18:00;55.44;37.35;71.81;;
63692;Laerm;49838;51.798;10.954;2022-12-07T13:20:55;53.30;38.18;70.42;;
63692;Laerm;49838;51.798;10.954;2022-12-07T13:23:25;58.07;37.14;72.36;;
63692;Laerm;49838;51.798;10.954;2022-12-07T13:26:13;55.31;37.36;72.30;;
63692;Laerm;49838;51.798;10.954;2022-12-07T13:28:45;56.82;37.97;72.19;;
63692;Laerm;49838;51.798;10.954;2022-12-07T13:31:30;55.16;38.40;71.44;;
63692;Laerm;49838;51.798;10.954;2022-12-07T13:33:58;61.00;40.41;77.81;;
63692;Laerm;49838;51.798;10.954;2022-12-07T13:36:28;57.68;37.49;73.77;;
63692;Laerm;49838;51.798;10.954;2022-12-07T13:38:59;57.61;36.66;71.27;;
63692;Laerm;49838;51.798;10.954;2022-12-07T13:41:28;53.06;38.03;69.35;;
63692;Laerm;49838;51.798;10.954;2022-12-07T13:44:02;57.69;37.91;72.10;;
63692;Laerm;49838;51.798;10.954;2022-12-07T13:46:40;51.26;37.54;69.31;;
63692;Laerm;49838;51.798;10.954;2022-12-07T13:49:17;58.60;39.35;73.81;;
63692;Laerm;49838;51.798;10.954;2022-12-07T13:51:45;56.18;46.70;70.95;;
63692;Laerm;49838;51.798;10.954;2022-12-07T13:54:13;53.80;45.55;68.82;;
63692;Laerm;49838;51.798;10.954;2022-12-07T13:56:40;61.23;46.86;73.95;;
63692;Laerm;49838;51.798;10.954;2022-12-07T13:59:14;62.30;45.25;75.82;;
63692;Laerm;49838;51.798;10.954;2022-12-07T14:01:42;62.43;45.19;78.92;;
63692;Laerm;49838;51.798;10.954;2022-12-07T14:04:28;56.28;40.63;73.07;;
63692;Laerm;49838;51.798;10.954;2022-12-07T14:06:56;63.00;44.81;76.37;;
63692;Laerm;49838;51.798;10.954;2022-12-07T14:09:25;66.87;43.53;82.91;;